createdAt,value
2017-08-16T00:00:57.350Z,9.30
2017-08-16T00:03:25.574Z,8.40
2017-08-16T00:05:54.599Z,10.00
2017-08-16T00:08:22.895Z,9.40
2017-08-16T00:10:51.204Z,13.80
2017-08-16T00:13:19.671Z,10.70
2017-08-16T00:15:48.218Z,10.33
2017-08-16T00:18:16.478Z,9.73
2017-08-16T00:20:44.807Z,9.17
2017-08-16T00:23:13.304Z,9.40
2017-08-16T00:25:41.604Z,9.37
2017-08-16T00:28:10.633Z,10.20
2017-08-16T00:30:39.103Z,10.20
2017-08-16T00:33:07.355Z,9.70
2017-08-16T00:35:35.621Z,8.93
2017-08-16T00:38:04.636Z,10.30
2017-08-16T00:40:32.920Z,10.03
2017-08-16T00:43:01.276Z,9.80
2017-08-16T00:45:29.574Z,10.20
2017-08-16T00:47:58.004Z,10.87
2017-08-16T00:50:27.153Z,11.33
2017-08-16T00:52:55.441Z,9.77
2017-08-16T00:55:23.795Z,9.43
2017-08-16T00:57:52.067Z,9.90
2017-08-16T01:00:20.330Z,10.30
2017-08-16T01:02:48.649Z,9.10
2017-08-16T01:05:16.891Z,8.20
2017-08-16T01:07:45.299Z,8.73
2017-08-16T01:10:13.549Z,8.23
2017-08-16T01:12:41.839Z,7.90
2017-08-16T01:15:10.269Z,8.50
2017-08-16T01:17:39.462Z,8.00
2017-08-16T01:20:07.681Z,9.50
2017-08-16T01:22:35.985Z,8.20
2017-08-16T01:25:05.160Z,8.53
2017-08-16T01:27:33.450Z,8.13
2017-08-16T01:30:01.698Z,7.43
2017-08-16T01:32:30.008Z,7.27
2017-08-16T01:34:58.561Z,7.27
2017-08-16T01:37:26.856Z,7.80
2017-08-16T01:39:55.235Z,7.47
2017-08-16T01:42:23.614Z,6.80
2017-08-16T01:44:51.933Z,7.00
2017-08-16T01:47:21.119Z,8.10
2017-08-16T01:49:49.853Z,7.70
2017-08-16T01:52:18.095Z,8.50
2017-08-16T01:54:47.138Z,8.80
2017-08-16T01:57:15.497Z,7.97
2017-08-16T01:59:44.010Z,8.37
2017-08-16T02:02:12.307Z,8.00
2017-08-16T02:04:40.603Z,7.90
2017-08-16T02:07:09.101Z,7.97
2017-08-16T02:09:37.361Z,7.97
2017-08-16T02:12:05.602Z,6.93
2017-08-16T02:14:33.925Z,7.20
2017-08-16T02:17:02.240Z,6.57
2017-08-16T02:19:30.682Z,7.43
2017-08-16T02:21:59.025Z,7.17
2017-08-16T02:24:28.165Z,7.30
2017-08-16T02:26:56.399Z,7.23
2017-08-16T02:29:25.444Z,7.60
2017-08-16T02:31:53.698Z,7.63
2017-08-16T02:34:22.878Z,8.90
2017-08-16T02:36:51.158Z,8.20
2017-08-16T02:39:19.500Z,7.53
2017-08-16T02:41:47.773Z,8.30
2017-08-16T02:44:16.224Z,8.30
2017-08-16T02:46:44.678Z,7.00
2017-08-16T02:49:13.792Z,6.63
2017-08-16T02:51:42.220Z,7.37
2017-08-16T02:54:10.656Z,7.47
2017-08-16T02:56:38.892Z,7.77
2017-08-16T02:59:07.242Z,7.00
2017-08-16T03:01:35.557Z,8.40
2017-08-16T03:04:03.826Z,7.33
2017-08-16T03:06:32.098Z,7.67
2017-08-16T03:09:01.325Z,6.87
2017-08-16T03:11:29.775Z,6.70
2017-08-16T03:13:58.069Z,6.80
2017-08-16T03:16:26.535Z,7.03
2017-08-16T03:18:55.611Z,6.67
2017-08-16T03:21:23.884Z,6.70
2017-08-16T03:23:52.976Z,6.07
2017-08-16T03:26:21.488Z,5.43
2017-08-16T03:28:55.123Z,6.47
2017-08-16T03:31:23.377Z,6.20
2017-08-16T03:33:51.618Z,6.50
2017-08-16T03:36:20.693Z,5.87
2017-08-16T03:38:49.136Z,5.83
2017-08-16T03:41:17.488Z,5.90
2017-08-16T03:43:46.558Z,6.53
2017-08-16T03:46:15.041Z,5.70
2017-08-16T03:48:43.504Z,6.27
2017-08-16T03:51:12.188Z,6.20
2017-08-16T03:53:41.151Z,6.60
2017-08-16T03:56:09.619Z,5.90
2017-08-16T03:58:38.004Z,6.13
2017-08-16T04:01:06.660Z,5.40
2017-08-16T04:03:35.743Z,5.87
2017-08-16T04:06:03.997Z,5.60
2017-08-16T04:08:32.574Z,6.10
2017-08-16T04:11:01.053Z,5.13
2017-08-16T04:13:29.317Z,5.20
2017-08-16T04:15:57.716Z,5.87
2017-08-16T04:18:26.757Z,6.10
2017-08-16T04:20:55.454Z,6.13
2017-08-16T04:23:23.735Z,5.80
2017-08-16T04:25:52.020Z,6.20
2017-08-16T04:28:20.277Z,6.03
2017-08-16T04:30:48.513Z,5.97
2017-08-16T04:33:16.862Z,5.37
2017-08-16T04:35:45.116Z,8.03
2017-08-16T04:38:13.402Z,5.83
2017-08-16T04:40:41.630Z,5.70
2017-08-16T04:43:09.906Z,5.83
2017-08-16T04:45:39.653Z,6.40
2017-08-16T04:48:07.904Z,7.03
2017-08-16T04:50:36.805Z,7.93
2017-08-16T04:53:05.104Z,7.43
2017-08-16T04:55:34.173Z,6.53
2017-08-16T04:58:02.429Z,8.20
2017-08-16T05:00:30.685Z,7.77
2017-08-16T05:02:59.374Z,8.10
2017-08-16T05:05:27.703Z,6.57
2017-08-16T05:07:56.063Z,6.53
2017-08-16T05:10:24.297Z,7.00
2017-08-16T05:12:52.590Z,6.40
2017-08-16T05:15:20.832Z,6.43
2017-08-16T05:17:49.099Z,6.30
2017-08-16T05:20:17.487Z,5.43
2017-08-16T05:22:45.843Z,6.57
2017-08-16T05:25:14.142Z,8.30
2017-08-16T05:27:42.381Z,9.80
2017-08-16T05:30:10.669Z,10.30
2017-08-16T05:32:38.914Z,8.40
2017-08-16T05:35:07.164Z,8.17
2017-08-16T05:37:35.394Z,7.00
2017-08-16T05:40:03.658Z,7.00
2017-08-16T05:42:31.941Z,7.03
2017-08-16T05:45:00.340Z,7.43
2017-08-16T05:47:28.635Z,6.00
2017-08-16T05:49:57.647Z,6.20
2017-08-16T05:52:25.898Z,6.50
2017-08-16T05:54:55.120Z,6.60
2017-08-16T05:57:23.380Z,5.90
2017-08-16T05:59:51.764Z,9.10
2017-08-16T06:02:20.106Z,6.27
2017-08-16T06:04:48.360Z,5.87
2017-08-16T06:07:16.717Z,5.87
2017-08-16T06:09:45.192Z,6.00
2017-08-16T06:12:13.516Z,5.57
2017-08-16T06:14:41.921Z,6.87
2017-08-16T06:17:11.300Z,5.97
2017-08-16T06:19:40.597Z,5.70
2017-08-16T06:22:09.456Z,9.03
2017-08-16T06:24:38.676Z,9.37
2017-08-16T06:27:07.894Z,7.10
2017-08-16T06:29:37.000Z,7.70
2017-08-16T06:32:05.208Z,7.43
2017-08-16T06:34:35.334Z,7.50
2017-08-16T06:37:03.719Z,8.37
2017-08-16T06:39:31.941Z,7.80
2017-08-16T06:42:00.209Z,6.80
2017-08-16T06:44:29.564Z,6.97
2017-08-16T06:46:58.641Z,7.53
2017-08-16T06:49:27.029Z,7.93
2017-08-16T06:51:55.340Z,8.73
2017-08-16T06:54:23.676Z,8.37
2017-08-16T06:56:51.916Z,9.47
2017-08-16T06:59:20.931Z,9.07
2017-08-16T07:01:49.194Z,8.37
2017-08-16T07:04:17.443Z,9.60
2017-08-16T07:06:45.721Z,8.73
2017-08-16T07:09:14.721Z,8.03
2017-08-16T07:11:44.888Z,9.37
2017-08-16T07:14:13.302Z,9.87
2017-08-16T07:16:41.625Z,10.07
2017-08-16T07:19:10.544Z,9.73
2017-08-16T07:21:38.823Z,9.83
2017-08-16T07:24:07.110Z,9.90
2017-08-16T07:26:35.514Z,9.70
2017-08-16T07:29:04.810Z,10.60
2017-08-16T07:31:34.129Z,10.37
2017-08-16T07:34:02.369Z,10.60
2017-08-16T07:36:31.652Z,10.27
2017-08-16T07:39:00.240Z,9.90
2017-08-16T07:41:28.560Z,10.37
2017-08-16T07:43:57.094Z,11.80
2017-08-16T07:46:25.618Z,11.67
2017-08-16T07:48:54.778Z,11.40
2017-08-16T07:51:23.300Z,11.70
2017-08-16T07:53:51.583Z,11.30
2017-08-16T07:56:19.872Z,11.17
2017-08-16T07:58:48.172Z,12.30
2017-08-16T08:01:16.646Z,12.73
2017-08-16T08:03:45.045Z,12.20
2017-08-16T08:06:13.495Z,11.33
2017-08-16T08:08:41.768Z,12.20
2017-08-16T08:11:10.005Z,12.47
2017-08-16T08:13:39.045Z,13.70
2017-08-16T08:16:07.650Z,14.03
2017-08-16T08:18:36.057Z,12.87
2017-08-16T08:21:05.185Z,13.10
2017-08-16T08:23:33.502Z,13.97
2017-08-16T08:26:01.791Z,13.57
2017-08-16T08:28:30.876Z,15.67
2017-08-16T08:30:59.235Z,14.53
2017-08-16T08:33:27.670Z,13.50
2017-08-16T08:35:56.719Z,12.50
2017-08-16T08:38:24.974Z,12.63
2017-08-16T08:40:53.390Z,12.23
2017-08-16T08:43:21.649Z,12.63
2017-08-16T08:45:50.011Z,13.90
2017-08-16T08:48:18.385Z,13.07
2017-08-16T08:50:46.762Z,13.43
2017-08-16T08:53:16.258Z,12.47
2017-08-16T08:55:44.683Z,13.50
2017-08-16T08:58:12.944Z,11.20
2017-08-16T09:00:41.206Z,11.63
2017-08-16T09:03:09.632Z,13.93
2017-08-16T09:05:37.921Z,11.87
2017-08-16T09:08:06.204Z,11.93
2017-08-16T09:10:34.598Z,11.53
2017-08-16T09:13:03.747Z,11.67
2017-08-16T09:15:32.819Z,10.50
2017-08-16T09:18:01.145Z,12.80
2017-08-16T09:20:29.670Z,11.93
2017-08-16T09:22:58.330Z,11.13
2017-08-16T09:25:26.592Z,10.97
2017-08-16T09:27:56.176Z,12.47
2017-08-16T09:30:24.682Z,12.10
2017-08-16T09:32:53.048Z,10.57
2017-08-16T09:35:21.409Z,12.40
2017-08-16T09:37:50.356Z,10.80
2017-08-16T09:40:18.638Z,10.80
2017-08-16T09:42:46.874Z,10.00
2017-08-16T09:45:15.196Z,10.10
2017-08-16T09:47:43.425Z,11.20
2017-08-16T09:50:11.736Z,10.70
2017-08-16T09:52:40.651Z,11.40
2017-08-16T09:55:09.084Z,10.57
2017-08-16T09:57:37.611Z,12.07
2017-08-16T10:00:05.885Z,11.43
2017-08-16T10:02:34.145Z,11.13
2017-08-16T10:05:02.408Z,12.33
2017-08-16T10:07:30.739Z,12.53
2017-08-16T10:09:59.831Z,12.13
2017-08-16T10:12:28.090Z,11.60
2017-08-16T10:14:57.264Z,11.70
2017-08-16T10:17:25.656Z,11.80
2017-08-16T10:19:54.021Z,12.33
2017-08-16T10:22:22.338Z,10.80
2017-08-16T10:24:50.623Z,11.40
2017-08-16T10:27:19.891Z,11.37
2017-08-16T10:29:48.268Z,11.13
2017-08-16T10:32:16.534Z,10.70
2017-08-16T10:34:44.920Z,11.67
2017-08-16T10:37:13.191Z,11.90
2017-08-16T10:39:41.478Z,10.37
2017-08-16T10:42:09.752Z,10.53
2017-08-16T10:44:38.846Z,11.47
2017-08-16T10:47:08.247Z,10.50
2017-08-16T10:49:36.544Z,10.80
2017-08-16T10:52:05.670Z,12.17
2017-08-16T10:54:34.803Z,12.43
2017-08-16T10:57:03.866Z,10.23
2017-08-16T10:59:32.134Z,10.27
2017-08-16T11:02:00.390Z,10.03
2017-08-16T11:04:28.706Z,9.70
2017-08-16T11:06:56.966Z,9.10
2017-08-16T11:09:25.252Z,10.37
2017-08-16T11:11:53.585Z,11.23
2017-08-16T11:14:22.173Z,10.80
2017-08-16T11:16:51.339Z,10.53
2017-08-16T11:19:20.566Z,11.80
2017-08-16T11:21:48.938Z,10.40
2017-08-16T11:24:17.213Z,11.10
2017-08-16T11:26:45.666Z,10.70
2017-08-16T11:29:13.906Z,9.50
2017-08-16T11:31:42.359Z,10.50
2017-08-16T11:34:12.382Z,9.87
2017-08-16T11:36:40.718Z,11.00
2017-08-16T11:39:09.092Z,10.40
2017-08-16T11:41:38.674Z,10.07
2017-08-16T11:44:07.242Z,10.23
2017-08-16T11:46:36.273Z,10.40
2017-08-16T11:49:06.555Z,11.50
2017-08-16T11:51:34.912Z,13.30
2017-08-16T11:54:03.362Z,11.60
2017-08-16T11:56:31.837Z,10.40
2017-08-16T11:59:00.188Z,11.57
2017-08-16T12:01:28.468Z,9.87
2017-08-16T12:03:56.957Z,9.30
2017-08-16T12:06:25.201Z,8.37
2017-08-16T12:08:53.472Z,9.00
2017-08-16T12:11:21.715Z,9.03
2017-08-16T12:13:50.949Z,8.50
2017-08-16T12:16:19.633Z,8.40
2017-08-16T12:18:47.887Z,8.13
2017-08-16T12:21:16.117Z,8.17
2017-08-16T12:23:44.365Z,8.87
2017-08-16T12:26:12.657Z,8.20
2017-08-16T12:28:40.927Z,8.20
2017-08-16T12:31:09.429Z,8.57
2017-08-16T12:33:37.662Z,8.97
2017-08-16T12:36:09.840Z,10.27
2017-08-16T12:38:38.100Z,7.90
2017-08-16T12:41:06.336Z,8.00
2017-08-16T12:43:35.625Z,8.47
2017-08-16T12:46:04.177Z,8.37
2017-08-16T12:48:32.465Z,8.50
2017-08-16T12:51:00.852Z,8.10
2017-08-16T12:53:29.196Z,8.60
2017-08-16T12:55:57.739Z,8.27
2017-08-16T12:58:26.779Z,8.73
2017-08-16T13:00:55.029Z,8.63
2017-08-16T13:03:23.517Z,8.67
2017-08-16T13:05:51.773Z,9.03
2017-08-16T13:08:20.075Z,8.40
2017-08-16T13:10:48.391Z,7.93
2017-08-16T13:13:16.949Z,9.90
2017-08-16T13:15:45.314Z,8.83
2017-08-16T13:18:13.638Z,9.37
2017-08-16T13:20:42.029Z,8.67
2017-08-16T13:23:10.491Z,8.33
2017-08-16T13:25:38.831Z,8.27
2017-08-16T13:28:07.101Z,7.50
2017-08-16T13:30:35.408Z,7.50
2017-08-16T13:33:03.813Z,7.47
2017-08-16T13:35:32.032Z,8.23
2017-08-16T13:38:00.633Z,7.23
2017-08-16T13:40:28.945Z,7.20
2017-08-16T13:42:57.196Z,6.60
2017-08-16T13:45:25.462Z,8.10
2017-08-16T13:47:54.029Z,8.03
2017-08-16T13:50:22.573Z,7.63
2017-08-16T13:52:51.621Z,7.57
2017-08-16T13:55:19.918Z,8.10
2017-08-16T13:57:48.352Z,8.03
2017-08-16T14:00:16.592Z,7.33
2017-08-16T14:02:44.862Z,8.30
2017-08-16T14:05:14.046Z,8.60
2017-08-16T14:07:42.927Z,7.87
2017-08-16T14:10:11.161Z,8.00
2017-08-16T14:12:39.484Z,9.30
2017-08-16T14:15:07.767Z,7.40
2017-08-16T14:17:36.100Z,8.43
2017-08-16T14:20:04.547Z,7.43
2017-08-16T14:22:35.523Z,8.03
2017-08-16T14:25:06.618Z,7.30
2017-08-16T14:27:35.859Z,8.40
2017-08-16T14:30:04.137Z,7.70
2017-08-16T14:32:32.535Z,7.90
2017-08-16T14:35:01.329Z,7.30
2017-08-16T14:37:29.560Z,8.03
2017-08-16T14:39:58.039Z,8.23
2017-08-16T14:42:26.375Z,8.30
2017-08-16T14:44:55.407Z,8.20
2017-08-16T14:47:23.646Z,7.43
2017-08-16T14:49:52.704Z,7.80
2017-08-16T14:52:20.950Z,7.50
2017-08-16T14:54:49.197Z,7.70
2017-08-16T14:57:17.506Z,6.83
2017-08-16T14:59:45.794Z,8.40
2017-08-16T15:02:14.404Z,8.17
2017-08-16T15:04:42.713Z,8.43
2017-08-16T15:07:11.752Z,7.83
2017-08-16T15:09:40.005Z,8.00
2017-08-16T15:12:08.272Z,8.13
2017-08-16T15:14:36.559Z,8.63
2017-08-16T15:17:04.785Z,8.57
2017-08-16T15:19:33.172Z,7.70
2017-08-16T15:22:01.428Z,8.37
2017-08-16T15:24:29.681Z,8.77
2017-08-16T15:26:58.081Z,9.00
2017-08-16T15:29:26.311Z,8.63
2017-08-16T15:31:54.548Z,9.37
2017-08-16T15:34:23.577Z,8.20
2017-08-16T15:36:51.905Z,8.30
2017-08-16T15:39:20.145Z,8.27
2017-08-16T15:41:48.386Z,8.87
2017-08-16T15:44:16.720Z,8.63
2017-08-16T15:46:45.157Z,8.93
2017-08-16T15:49:13.517Z,8.60
2017-08-16T15:51:41.751Z,8.20
2017-08-16T15:54:10.043Z,8.40
2017-08-16T15:56:38.874Z,8.37
2017-08-16T15:59:07.389Z,9.80
2017-08-16T16:01:35.984Z,9.40
2017-08-16T16:04:04.276Z,7.80
2017-08-16T16:06:32.736Z,7.80
2017-08-16T16:09:01.028Z,8.27
2017-08-16T16:11:30.064Z,8.30
2017-08-16T16:13:58.293Z,8.70
2017-08-16T16:16:27.337Z,8.57
2017-08-16T16:18:55.776Z,8.57
2017-08-16T16:21:24.827Z,8.90
2017-08-16T16:23:54.024Z,8.00
2017-08-16T16:26:22.308Z,7.63
2017-08-16T16:28:50.541Z,7.70
2017-08-16T16:31:19.598Z,8.77
2017-08-16T16:33:47.805Z,8.63
2017-08-16T16:36:16.211Z,9.33
2017-08-16T16:38:44.464Z,8.70
2017-08-16T16:41:12.736Z,8.60
2017-08-16T16:43:41.015Z,8.70
2017-08-16T16:46:09.296Z,8.90
2017-08-16T16:48:37.546Z,8.33
2017-08-16T16:51:05.872Z,8.30
2017-08-16T16:53:34.125Z,8.00
2017-08-16T16:56:02.401Z,8.00
2017-08-16T16:58:30.887Z,8.00
2017-08-16T17:00:59.129Z,8.40
2017-08-16T17:03:27.368Z,8.73
2017-08-16T17:05:55.650Z,7.80
2017-08-16T17:08:23.929Z,8.10
2017-08-16T17:10:52.230Z,8.37
2017-08-16T17:13:21.407Z,9.13
2017-08-16T17:15:49.646Z,8.77
2017-08-16T17:18:17.902Z,9.00
2017-08-16T17:20:46.189Z,8.93
2017-08-16T17:23:14.461Z,8.50
2017-08-16T17:25:42.717Z,9.53
2017-08-16T17:28:10.986Z,9.40
2017-08-16T17:30:39.258Z,8.97
2017-08-16T17:33:07.519Z,8.80
2017-08-16T17:35:36.610Z,8.60
2017-08-16T17:38:04.841Z,8.60
2017-08-16T17:40:33.091Z,8.87
2017-08-16T17:43:02.323Z,7.90
2017-08-16T17:45:30.622Z,8.10
2017-08-16T17:47:59.396Z,7.87
2017-08-16T17:50:27.609Z,9.10
2017-08-16T17:52:55.881Z,8.63
2017-08-16T17:55:24.883Z,8.80
2017-08-16T17:57:53.137Z,8.67
2017-08-16T18:00:22.169Z,9.30
2017-08-16T18:02:50.557Z,8.80
2017-08-16T18:05:19.182Z,8.90
2017-08-16T18:07:47.457Z,8.50
2017-08-16T18:10:15.849Z,8.37
2017-08-16T18:12:44.084Z,8.93
2017-08-16T18:15:12.357Z,8.60
2017-08-16T18:17:40.625Z,7.80
2017-08-16T18:20:08.920Z,8.17
2017-08-16T18:22:37.181Z,8.10
2017-08-16T18:25:05.454Z,7.90
2017-08-16T18:27:33.732Z,8.43
2017-08-16T18:30:01.970Z,7.13
2017-08-16T18:32:30.214Z,9.10
2017-08-16T18:34:59.114Z,8.63
2017-08-16T18:37:28.986Z,8.80
2017-08-16T18:39:57.253Z,7.60
2017-08-16T18:42:25.522Z,9.27
2017-08-16T18:44:53.773Z,8.03
2017-08-16T18:47:22.447Z,8.30
2017-08-16T18:49:51.475Z,8.60
2017-08-16T18:52:19.898Z,8.47
2017-08-16T18:54:48.152Z,8.07
2017-08-16T18:57:16.390Z,8.90
2017-08-16T18:59:44.882Z,8.70
2017-08-16T19:02:13.552Z,9.20
2017-08-16T19:04:41.934Z,9.27
2017-08-16T19:07:10.325Z,9.93
2017-08-16T19:09:38.603Z,10.43
2017-08-16T19:12:06.859Z,9.10
2017-08-16T19:14:35.875Z,9.40
2017-08-16T19:17:04.128Z,11.77
2017-08-16T19:19:33.087Z,12.43
2017-08-16T19:22:02.092Z,10.87
2017-08-16T19:24:31.124Z,9.40
2017-08-16T19:26:59.380Z,10.30
2017-08-16T19:29:28.899Z,9.40
2017-08-16T19:31:57.124Z,10.53
2017-08-16T19:34:25.464Z,10.97
2017-08-16T19:36:53.709Z,11.63
2017-08-16T19:39:21.983Z,11.33
2017-08-16T19:41:50.222Z,10.80
2017-08-16T19:44:18.582Z,12.30
2017-08-16T19:46:46.828Z,10.50
2017-08-16T19:49:16.635Z,10.90
2017-08-16T19:51:44.942Z,10.90
2017-08-16T19:54:13.250Z,11.93
2017-08-16T19:56:42.499Z,10.70
2017-08-16T19:59:10.749Z,11.33
2017-08-16T20:01:39.021Z,10.80
2017-08-16T20:04:07.337Z,11.40
2017-08-16T20:06:35.599Z,10.60
2017-08-16T20:09:03.862Z,11.17
2017-08-16T20:11:32.124Z,9.90
2017-08-16T20:14:00.376Z,10.97
2017-08-16T20:16:29.411Z,11.27
2017-08-16T20:18:57.674Z,10.80
2017-08-16T20:21:25.974Z,11.67
2017-08-16T20:23:54.241Z,10.60
2017-08-16T20:26:22.700Z,10.73
2017-08-16T20:28:52.017Z,10.60
2017-08-16T20:31:20.312Z,11.40
2017-08-16T20:33:48.613Z,10.77
2017-08-16T20:36:17.284Z,11.67
2017-08-16T20:38:45.545Z,11.50
2017-08-16T20:41:13.911Z,12.27
2017-08-16T20:43:42.209Z,10.80
2017-08-16T20:46:10.683Z,11.23
2017-08-16T20:48:39.153Z,10.60
2017-08-16T20:51:07.649Z,10.37
2017-08-16T20:53:35.889Z,11.60
2017-08-16T20:56:04.185Z,12.13
2017-08-16T20:58:32.451Z,10.30
2017-08-16T21:01:00.794Z,12.07
2017-08-16T21:03:29.030Z,11.03
2017-08-16T21:05:57.428Z,11.40
2017-08-16T21:08:25.677Z,11.40
2017-08-16T21:10:53.933Z,10.47
2017-08-16T21:13:22.198Z,11.07
2017-08-16T21:15:50.450Z,10.30
2017-08-16T21:18:19.520Z,11.20
2017-08-16T21:20:47.797Z,11.77
2017-08-16T21:23:16.078Z,10.40
2017-08-16T21:25:44.369Z,10.50
2017-08-16T21:28:12.785Z,11.40
2017-08-16T21:30:41.138Z,11.50
2017-08-16T21:33:10.209Z,11.10
2017-08-16T21:35:38.444Z,9.37
2017-08-16T21:38:06.702Z,9.67
2017-08-16T21:40:34.957Z,9.60
2017-08-16T21:43:03.385Z,10.20
2017-08-16T21:45:31.641Z,10.63
2017-08-16T21:47:59.962Z,10.73
2017-08-16T21:50:28.345Z,10.30
2017-08-16T21:52:56.602Z,10.50
2017-08-16T21:55:24.894Z,10.77
2017-08-16T21:57:53.276Z,10.90
2017-08-16T22:00:21.665Z,10.63
2017-08-16T22:02:51.098Z,10.23
2017-08-16T22:05:19.358Z,10.20
2017-08-16T22:07:47.602Z,9.90
2017-08-16T22:10:16.669Z,10.40
2017-08-16T22:12:44.941Z,10.87
2017-08-16T22:15:13.206Z,10.17
2017-08-16T22:17:41.449Z,9.57
2017-08-16T22:20:09.704Z,9.90
2017-08-16T22:22:38.715Z,10.67
2017-08-16T22:25:06.984Z,10.47
2017-08-16T22:27:35.388Z,10.63
2017-08-16T22:30:03.662Z,10.50
2017-08-16T22:32:31.904Z,10.57
2017-08-16T22:35:00.187Z,10.27
2017-08-16T22:37:28.607Z,11.77
2017-08-16T22:39:56.895Z,11.13
2017-08-16T22:42:25.169Z,10.30
2017-08-16T22:44:53.396Z,11.20
2017-08-16T22:47:21.768Z,9.80
2017-08-16T22:49:50.048Z,9.47
2017-08-16T22:52:18.313Z,9.83
2017-08-16T22:54:47.354Z,9.63
2017-08-16T22:57:15.624Z,10.33
2017-08-16T22:59:43.883Z,10.37
2017-08-16T23:02:12.225Z,10.30
2017-08-16T23:04:40.733Z,9.50
2017-08-16T23:07:09.710Z,9.60
2017-08-16T23:09:37.957Z,9.20
2017-08-16T23:12:06.273Z,10.00
2017-08-16T23:14:34.530Z,9.63
2017-08-16T23:17:02.770Z,10.00
2017-08-16T23:19:31.019Z,10.13
2017-08-16T23:21:59.291Z,8.43
2017-08-16T23:24:27.509Z,9.90
2017-08-16T23:26:55.770Z,9.03
2017-08-16T23:29:24.017Z,10.70
2017-08-16T23:31:52.282Z,9.63
2017-08-16T23:34:20.543Z,10.70
2017-08-16T23:36:48.826Z,10.97
2017-08-16T23:39:17.166Z,10.17
2017-08-16T23:41:46.213Z,9.27
2017-08-16T23:44:14.457Z,9.00
2017-08-16T23:46:43.482Z,9.47
2017-08-16T23:49:11.759Z,9.83
2017-08-16T23:51:40.037Z,10.10
2017-08-16T23:54:08.305Z,10.50
2017-08-16T23:56:36.549Z,8.47
2017-08-16T23:59:05.720Z,9.90
